createdAt,value
2018-08-20T00:01:45.904Z,64.12
2018-08-20T00:04:50.962Z,62.91
2018-08-20T00:07:48.410Z,63.47
2018-08-20T00:10:46.190Z,63.16
2018-08-20T00:13:43.876Z,63.42
2018-08-20T00:16:41.727Z,63.75
2018-08-20T00:19:39.814Z,64.13
2018-08-20T00:22:37.672Z,63.96
2018-08-20T00:25:38.704Z,64.00
2018-08-20T00:28:36.507Z,64.24
2018-08-20T00:31:34.447Z,64.29
2018-08-20T00:34:32.333Z,63.66
2018-08-20T00:37:29.708Z,64.39
2018-08-20T00:40:28.816Z,63.80
2018-08-20T00:43:26.791Z,64.01
2018-08-20T00:46:24.036Z,63.78
2018-08-20T00:49:23.123Z,64.64
2018-08-20T00:52:21.008Z,64.53
2018-08-20T00:55:19.924Z,64.44
2018-08-20T00:58:17.678Z,64.51
2018-08-20T01:01:15.663Z,64.19
2018-08-20T01:04:13.503Z,64.75
2018-08-20T01:07:11.387Z,65.25
2018-08-20T01:10:08.981Z,64.95
2018-08-20T01:13:06.805Z,64.95
2018-08-20T01:16:04.817Z,65.70
2018-08-20T01:19:02.628Z,64.61
2018-08-20T01:22:00.342Z,65.26
2018-08-20T01:24:58.356Z,64.60
2018-08-20T01:27:57.444Z,65.78
2018-08-20T01:30:55.295Z,65.37
2018-08-20T01:33:52.675Z,66.05
2018-08-20T01:36:50.016Z,65.89
2018-08-20T01:39:48.150Z,65.35
2018-08-20T01:42:46.187Z,65.57
2018-08-20T01:45:44.072Z,66.21
2018-08-20T01:48:42.013Z,65.43
2018-08-20T01:51:40.091Z,66.34
2018-08-20T01:54:38.171Z,66.72
2018-08-20T01:57:36.036Z,66.40
2018-08-20T02:00:33.958Z,66.76
2018-08-20T02:03:31.965Z,66.75
2018-08-20T02:06:29.954Z,66.59
2018-08-20T02:09:28.834Z,66.62
2018-08-20T02:12:26.829Z,66.65
2018-08-20T02:15:25.872Z,66.39
2018-08-20T02:18:24.523Z,66.62
2018-08-20T02:21:22.574Z,67.47
2018-08-20T02:24:20.466Z,67.27
2018-08-20T02:27:18.430Z,66.64
2018-08-20T02:30:16.407Z,66.70
2018-08-20T02:33:14.147Z,67.12
2018-08-20T02:36:12.180Z,67.55
2018-08-20T02:39:10.003Z,67.18
2018-08-20T02:42:07.177Z,67.61
2018-08-20T02:45:05.417Z,68.27
2018-08-20T02:48:03.408Z,68.17
2018-08-20T02:51:01.287Z,67.78
2018-08-20T02:53:59.475Z,67.97
2018-08-20T02:56:57.221Z,68.45
2018-08-20T02:59:54.411Z,68.79
2018-08-20T03:02:51.742Z,68.69
2018-08-20T03:05:49.297Z,67.92
2018-08-20T03:08:46.603Z,68.11
2018-08-20T03:11:43.707Z,68.43
2018-08-20T03:14:41.236Z,68.85
2018-08-20T03:17:39.298Z,68.65
2018-08-20T03:20:37.568Z,68.89
2018-08-20T03:23:35.604Z,68.73
2018-08-20T03:26:33.311Z,69.43
2018-08-20T03:29:31.080Z,70.01
2018-08-20T03:32:29.041Z,69.13
2018-08-20T03:35:26.616Z,69.26
2018-08-20T03:38:24.491Z,69.76
2018-08-20T03:41:22.135Z,69.39
2018-08-20T03:44:20.073Z,69.67
2018-08-20T03:47:18.102Z,70.33
2018-08-20T03:50:15.893Z,70.05
2018-08-20T03:53:13.643Z,70.40
2018-08-20T03:56:11.693Z,70.20
2018-08-20T03:59:09.076Z,70.56
2018-08-20T04:02:08.972Z,69.99
2018-08-20T04:05:06.920Z,70.17
2018-08-20T04:08:04.868Z,70.26
2018-08-20T04:11:02.401Z,70.79
2018-08-20T04:14:00.087Z,70.34
2018-08-20T04:16:58.355Z,70.74
2018-08-20T04:19:55.672Z,70.41
2018-08-20T04:22:53.491Z,71.36
2018-08-20T04:25:50.627Z,71.13
2018-08-20T04:28:48.726Z,71.09
2018-08-20T04:31:46.687Z,71.51
2018-08-20T04:34:44.528Z,70.99
2018-08-20T04:37:42.235Z,71.65
2018-08-20T04:40:40.071Z,71.37
2018-08-20T04:43:37.942Z,71.60
2018-08-20T04:46:35.305Z,71.42
2018-08-20T04:49:33.430Z,71.34
2018-08-20T04:52:31.270Z,71.85
2018-08-20T04:55:29.356Z,72.43
2018-08-20T04:58:27.272Z,72.83
2018-08-20T05:01:24.535Z,71.99
2018-08-20T05:04:22.667Z,71.73
2018-08-20T05:07:20.556Z,73.07
2018-08-20T05:10:17.869Z,72.40
2018-08-20T05:13:15.503Z,72.21
2018-08-20T05:16:13.509Z,72.76
2018-08-20T05:19:11.395Z,73.44
2018-08-20T05:22:08.668Z,73.85
2018-08-20T05:25:06.375Z,73.76
2018-08-20T05:28:04.343Z,73.50
2018-08-20T05:31:02.126Z,73.22
2018-08-20T05:33:59.324Z,72.66
2018-08-20T05:36:57.446Z,72.18
2018-08-20T05:39:55.353Z,72.74
2018-08-20T05:42:52.776Z,72.10
2018-08-20T05:45:51.716Z,72.91
2018-08-20T05:48:49.601Z,72.39
2018-08-20T05:51:47.367Z,73.12
2018-08-20T05:54:45.344Z,72.31
2018-08-20T05:57:43.423Z,72.27
2018-08-20T06:00:40.669Z,71.98
2018-08-20T06:03:37.923Z,72.49
2018-08-20T06:06:35.284Z,72.98
2018-08-20T06:09:32.623Z,72.92
2018-08-20T06:12:30.660Z,71.43
2018-08-20T06:15:29.844Z,72.07
2018-08-20T06:18:27.927Z,71.96
2018-08-20T06:21:25.721Z,71.73
2018-08-20T06:24:23.560Z,72.10
2018-08-20T06:27:21.563Z,71.58
2018-08-20T06:30:18.928Z,71.50
2018-08-20T06:33:16.070Z,71.60
2018-08-20T06:36:14.203Z,71.56
2018-08-20T06:39:12.388Z,71.33
2018-08-20T06:42:10.297Z,72.20
2018-08-20T06:45:07.424Z,71.53
2018-08-20T06:48:04.664Z,72.32
2018-08-20T06:51:01.804Z,72.18
2018-08-20T06:53:59.743Z,71.91
2018-08-20T06:56:57.100Z,71.61
2018-08-20T06:59:55.252Z,71.86
2018-08-20T07:02:53.144Z,71.51
2018-08-20T07:05:50.472Z,71.63
2018-08-20T07:08:48.475Z,72.28
2018-08-20T07:11:46.486Z,71.68
2018-08-20T07:14:44.086Z,70.74
2018-08-20T07:17:42.118Z,70.58
2018-08-20T07:20:39.508Z,70.68
2018-08-20T07:23:37.749Z,70.05
2018-08-20T07:26:35.480Z,69.34
2018-08-20T07:29:43.574Z,69.75
2018-08-20T07:32:41.022Z,69.02
2018-08-20T07:35:39.012Z,69.14
2018-08-20T07:38:36.008Z,69.06
2018-08-20T07:41:33.972Z,69.04
2018-08-20T07:44:31.748Z,69.43
2018-08-20T07:47:29.543Z,69.38
2018-08-20T07:50:27.412Z,68.63
2018-08-20T07:53:25.159Z,68.95
2018-08-20T07:56:23.202Z,68.54
2018-08-20T07:59:22.347Z,68.46
2018-08-20T08:02:20.280Z,68.27
2018-08-20T08:05:19.398Z,67.57
2018-08-20T08:08:17.461Z,67.34
2018-08-20T08:11:14.736Z,67.67
2018-08-20T08:14:13.789Z,67.26
2018-08-20T08:17:11.183Z,66.31
2018-08-20T08:20:09.143Z,67.27
2018-08-20T08:23:07.175Z,66.93
2018-08-20T08:26:05.127Z,66.59
2018-08-20T08:29:03.356Z,64.82
2018-08-20T08:32:00.356Z,64.79
2018-08-20T08:34:58.105Z,64.40
2018-08-20T08:37:57.236Z,64.25
2018-08-20T08:40:54.450Z,63.77
2018-08-20T08:43:52.249Z,62.34
2018-08-20T08:46:49.756Z,62.15
2018-08-20T08:49:46.983Z,60.98
2018-08-20T08:52:44.434Z,61.26
2018-08-20T08:55:42.399Z,61.10
2018-08-20T08:58:40.568Z,61.01
2018-08-20T09:01:38.545Z,60.50
2018-08-20T09:04:36.532Z,61.41
2018-08-20T09:07:34.463Z,62.94
2018-08-20T09:10:31.589Z,62.78
2018-08-20T09:13:28.671Z,63.00
2018-08-20T09:16:25.770Z,63.02
2018-08-20T09:19:23.001Z,63.22
2018-08-20T09:22:20.880Z,63.05
2018-08-20T09:25:19.704Z,63.98
2018-08-20T09:28:17.728Z,63.22
2018-08-20T09:31:14.731Z,63.32
2018-08-20T09:34:12.075Z,63.01
2018-08-20T09:37:09.785Z,62.66
2018-08-20T09:40:07.119Z,62.70
2018-08-20T09:43:04.990Z,63.35
2018-08-20T09:46:02.212Z,63.88
2018-08-20T09:48:59.295Z,64.52
2018-08-20T09:51:56.537Z,65.54
2018-08-20T09:54:54.692Z,65.45
2018-08-20T09:57:52.495Z,64.98
2018-08-20T10:00:50.371Z,65.50
2018-08-20T10:03:51.436Z,65.15
2018-08-20T10:06:49.686Z,66.66
2018-08-20T10:09:47.717Z,67.23
2018-08-20T10:12:45.419Z,67.88
2018-08-20T10:15:43.509Z,68.00
2018-08-20T10:18:41.280Z,68.85
2018-08-20T10:21:39.352Z,67.55
2018-08-20T10:24:37.558Z,68.24
2018-08-20T10:27:34.776Z,67.60
2018-08-20T10:30:33.771Z,67.69
2018-08-20T10:33:30.913Z,67.24
2018-08-20T10:36:28.944Z,69.39
2018-08-20T10:39:27.899Z,72.07
2018-08-20T10:42:25.792Z,71.54
2018-08-20T10:45:25.665Z,72.52
2018-08-20T10:48:23.964Z,72.77
2018-08-20T10:51:21.830Z,72.98
2018-08-20T10:54:18.945Z,72.55
2018-08-20T10:57:16.799Z,71.12
2018-08-20T11:00:14.763Z,70.72
2018-08-20T11:03:12.751Z,70.41
2018-08-20T11:06:10.077Z,70.57
2018-08-20T11:09:08.052Z,69.77
2018-08-20T11:12:07.020Z,67.41
2018-08-20T11:15:04.985Z,66.19
2018-08-20T11:18:02.924Z,66.54
2018-08-20T11:21:00.841Z,66.86
2018-08-20T11:23:58.943Z,65.21
2018-08-20T11:26:57.525Z,65.59
2018-08-20T11:29:55.544Z,64.84
2018-08-20T11:32:53.422Z,64.87
2018-08-20T11:35:51.433Z,65.82
2018-08-20T11:38:48.640Z,65.84
2018-08-20T11:41:46.755Z,65.42
2018-08-20T11:44:44.814Z,65.63
2018-08-20T11:47:42.894Z,65.25
2018-08-20T11:50:40.712Z,64.89
2018-08-20T11:53:38.593Z,63.78
2018-08-20T11:56:36.449Z,62.84
2018-08-20T11:59:33.927Z,60.98
2018-08-20T12:02:32.000Z,60.70
2018-08-20T12:05:29.331Z,60.23
2018-08-20T12:08:27.508Z,60.69
2018-08-20T12:11:25.572Z,60.61
2018-08-20T12:14:23.480Z,60.84
2018-08-20T12:17:21.438Z,60.55
2018-08-20T12:20:19.920Z,61.77
2018-08-20T12:23:18.108Z,61.20
2018-08-20T12:26:15.286Z,62.25
2018-08-20T12:29:13.221Z,61.22
2018-08-20T12:32:11.135Z,61.42
2018-08-20T12:35:08.479Z,60.87
2018-08-20T12:38:06.469Z,60.36
2018-08-20T12:41:04.433Z,58.84
2018-08-20T12:44:02.331Z,57.68
2018-08-20T12:47:00.311Z,57.57
2018-08-20T12:49:58.564Z,59.23
2018-08-20T12:52:56.217Z,57.58
2018-08-20T12:55:54.376Z,57.79
2018-08-20T12:58:56.614Z,57.58
2018-08-20T13:01:54.732Z,58.16
2018-08-20T13:04:52.731Z,58.15
2018-08-20T13:07:50.790Z,58.73
2018-08-20T13:10:48.843Z,59.23
2018-08-20T13:13:46.835Z,58.73
2018-08-20T13:16:44.610Z,57.86
2018-08-20T13:19:42.549Z,58.35
2018-08-20T13:22:40.575Z,58.89
2018-08-20T13:25:37.926Z,58.76
2018-08-20T13:28:35.714Z,58.79
2018-08-20T13:31:33.640Z,58.58
2018-08-20T13:34:31.474Z,58.21
2018-08-20T13:37:29.330Z,59.31
2018-08-20T13:40:26.665Z,59.58
2018-08-20T13:43:24.476Z,59.06
2018-08-20T13:46:22.477Z,58.88
2018-08-20T13:49:20.276Z,56.91
2018-08-20T13:52:18.380Z,55.29
2018-08-20T13:55:16.346Z,53.95
2018-08-20T13:58:13.827Z,54.32
2018-08-20T14:01:11.281Z,54.80
2018-08-20T14:04:08.263Z,54.68
2018-08-20T14:07:05.980Z,55.42
2018-08-20T14:10:03.150Z,55.10
2018-08-20T14:13:01.093Z,56.10
2018-08-20T14:15:58.417Z,55.50
2018-08-20T14:18:56.419Z,55.92
2018-08-20T14:21:54.020Z,56.49
2018-08-20T14:24:51.873Z,55.93
2018-08-20T14:27:49.662Z,55.81
2018-08-20T14:30:47.449Z,55.39
2018-08-20T14:33:45.396Z,56.79
2018-08-20T14:36:42.822Z,55.88
2018-08-20T14:39:40.668Z,56.33
2018-08-20T14:42:38.697Z,55.92
2018-08-20T14:45:42.917Z,56.15
2018-08-20T14:48:41.134Z,56.51
2018-08-20T14:51:39.023Z,56.17
2018-08-20T14:54:36.969Z,56.51
2018-08-20T14:57:34.501Z,56.32
2018-08-20T15:00:33.721Z,55.82
2018-08-20T15:03:31.665Z,56.17
2018-08-20T15:06:29.699Z,55.64
2018-08-20T15:09:28.831Z,55.08
2018-08-20T15:12:26.658Z,55.13
2018-08-20T15:15:24.745Z,54.42
2018-08-20T15:18:21.772Z,54.41
2018-08-20T15:21:19.800Z,54.73
2018-08-20T15:24:16.986Z,54.84
2018-08-20T15:27:14.351Z,54.86
2018-08-20T15:30:11.478Z,55.69
2018-08-20T15:33:08.759Z,56.18
2018-08-20T15:36:06.614Z,56.05
2018-08-20T15:39:04.608Z,56.67
2018-08-20T15:42:02.575Z,55.45
2018-08-20T15:45:00.702Z,56.76
2018-08-20T15:47:58.785Z,55.59
2018-08-20T15:50:56.967Z,55.59
2018-08-20T15:53:55.813Z,56.64
2018-08-20T15:56:53.756Z,56.76
2018-08-20T15:59:50.816Z,56.37
2018-08-20T16:02:47.918Z,56.72
2018-08-20T16:05:45.998Z,56.90
2018-08-20T16:08:43.871Z,58.20
2018-08-20T16:11:50.016Z,59.03
2018-08-20T16:14:47.244Z,59.74
2018-08-20T16:17:45.530Z,59.77
2018-08-20T16:20:43.252Z,59.00
2018-08-20T16:23:42.093Z,59.46
2018-08-20T16:26:39.996Z,59.26
2018-08-20T16:29:38.115Z,59.24
2018-08-20T16:32:36.005Z,59.55
2018-08-20T16:35:34.329Z,59.70
2018-08-20T16:38:32.258Z,59.78
2018-08-20T16:41:30.289Z,59.45
2018-08-20T16:44:28.173Z,59.30
2018-08-20T16:47:26.105Z,59.27
2018-08-20T16:50:25.003Z,58.73
2018-08-20T16:53:22.942Z,59.51
2018-08-20T16:56:21.040Z,59.34
2018-08-20T16:59:19.035Z,58.62
2018-08-20T17:02:18.035Z,59.03
2018-08-20T17:05:16.049Z,57.96
2018-08-20T17:08:13.963Z,58.95
2018-08-20T17:11:11.441Z,57.58
2018-08-20T17:14:09.541Z,58.43
2018-08-20T17:17:07.711Z,57.91
2018-08-20T17:20:05.775Z,58.88
2018-08-20T17:23:03.857Z,58.78
2018-08-20T17:26:01.561Z,58.86
2018-08-20T17:28:59.563Z,58.63
2018-08-20T17:31:57.372Z,59.34
2018-08-20T17:34:55.277Z,59.54
2018-08-20T17:37:53.079Z,60.19
2018-08-20T17:40:55.361Z,61.12
2018-08-20T17:43:53.169Z,61.08
2018-08-20T17:46:51.312Z,61.74
2018-08-20T17:49:49.348Z,61.46
2018-08-20T17:52:53.469Z,62.01
2018-08-20T17:55:51.174Z,62.62
2018-08-20T17:58:48.957Z,62.23
2018-08-20T18:01:48.894Z,62.63
2018-08-20T18:04:47.091Z,62.22
2018-08-20T18:07:44.908Z,62.57
2018-08-20T18:10:42.069Z,63.31
2018-08-20T18:13:54.526Z,62.78
2018-08-20T18:16:52.567Z,63.55
2018-08-20T18:19:50.220Z,63.72
2018-08-20T18:22:48.155Z,63.95
2018-08-20T18:25:49.281Z,63.74
2018-08-20T18:29:00.531Z,63.70
2018-08-20T18:31:57.591Z,64.25
2018-08-20T18:34:55.479Z,65.02
2018-08-20T18:37:58.291Z,64.38
2018-08-20T18:40:56.216Z,64.54
2018-08-20T18:43:54.124Z,65.81
2018-08-20T18:46:51.926Z,65.98
2018-08-20T18:50:02.955Z,65.73
2018-08-20T18:53:00.913Z,66.39
2018-08-20T18:56:05.140Z,66.25
2018-08-20T18:59:03.309Z,66.51
2018-08-20T19:02:01.272Z,66.39
2018-08-20T19:04:59.071Z,65.84
2018-08-20T19:07:57.139Z,66.11
2018-08-20T19:10:55.330Z,66.25
2018-08-20T19:13:52.580Z,66.96
2018-08-20T19:16:51.599Z,66.29
2018-08-20T19:19:54.657Z,67.33
2018-08-20T19:22:52.693Z,66.80
2018-08-20T19:25:50.848Z,67.62
2018-08-20T19:28:49.038Z,67.70
2018-08-20T19:31:47.054Z,67.55
2018-08-20T19:34:44.777Z,67.19
2018-08-20T19:37:42.104Z,67.33
2018-08-20T19:40:40.157Z,67.47
2018-08-20T19:44:10.644Z,68.04
2018-08-20T19:47:09.623Z,67.48
2018-08-20T19:50:07.439Z,68.09
2018-08-20T19:53:05.320Z,68.57
2018-08-20T19:56:03.038Z,68.57
2018-08-20T19:59:00.967Z,68.00
2018-08-20T20:01:58.974Z,68.80
2018-08-20T20:04:56.129Z,68.90
2018-08-20T20:07:59.139Z,69.04
2018-08-20T20:10:57.087Z,68.18
2018-08-20T20:13:55.994Z,68.21
2018-08-20T20:17:00.256Z,69.12
2018-08-20T20:19:58.305Z,68.81
2018-08-20T20:22:56.237Z,69.09
2018-08-20T20:25:54.275Z,69.59
2018-08-20T20:28:51.977Z,69.68
2018-08-20T20:31:49.858Z,70.16
2018-08-20T20:34:47.973Z,69.55
2018-08-20T20:37:46.111Z,69.91
2018-08-20T20:40:44.098Z,69.21
2018-08-20T20:43:45.144Z,69.38
2018-08-20T20:46:43.131Z,69.63
2018-08-20T20:49:40.584Z,69.58
2018-08-20T20:52:38.835Z,69.47
2018-08-20T20:55:36.527Z,69.93
2018-08-20T20:58:40.680Z,69.30
2018-08-20T21:01:38.773Z,69.56
2018-08-20T21:04:36.954Z,69.42
2018-08-20T21:07:39.893Z,69.42
2018-08-20T21:10:51.163Z,69.92
2018-08-20T21:13:49.990Z,69.56
2018-08-20T21:16:48.121Z,69.43
2018-08-20T21:19:48.162Z,69.56
2018-08-20T21:22:46.108Z,70.47
2018-08-20T21:25:44.231Z,70.33
2018-08-20T21:28:46.279Z,70.04
2018-08-20T21:31:59.478Z,69.67
2018-08-20T21:34:57.109Z,70.21
2018-08-20T21:37:54.367Z,70.14
2018-08-20T21:40:52.306Z,70.15
2018-08-20T21:43:53.474Z,70.11
2018-08-20T21:46:51.436Z,70.42
2018-08-20T21:49:49.251Z,70.52
2018-08-20T21:52:46.580Z,70.68
2018-08-20T21:55:44.528Z,71.53
2018-08-20T21:58:42.635Z,71.23
2018-08-20T22:01:40.603Z,70.75
2018-08-20T22:04:37.890Z,71.92
2018-08-20T22:07:35.007Z,71.49
2018-08-20T22:10:34.213Z,70.98
2018-08-20T22:13:32.014Z,71.77
2018-08-20T22:16:36.198Z,72.20
2018-08-20T22:19:34.181Z,71.65
2018-08-20T22:22:35.287Z,72.43
2018-08-20T22:25:34.456Z,72.39
2018-08-20T22:28:32.688Z,73.47
2018-08-20T22:31:30.557Z,73.82
2018-08-20T22:34:28.507Z,73.84
2018-08-20T22:37:26.436Z,73.21
2018-08-20T22:40:24.303Z,73.23
2018-08-20T22:43:22.259Z,72.17
2018-08-20T22:46:19.734Z,74.32
2018-08-20T22:49:17.620Z,73.71
2018-08-20T22:52:15.588Z,75.48
2018-08-20T22:55:13.359Z,74.79
2018-08-20T22:58:21.437Z,74.59
2018-08-20T23:01:18.628Z,74.28
2018-08-20T23:04:15.788Z,74.31
2018-08-20T23:07:17.974Z,74.29
2018-08-20T23:10:15.873Z,73.87
2018-08-20T23:13:13.845Z,73.78
2018-08-20T23:16:11.860Z,74.21
2018-08-20T23:19:10.995Z,74.33
2018-08-20T23:22:08.947Z,75.38
2018-08-20T23:25:07.045Z,75.69
2018-08-20T23:28:04.228Z,76.09
2018-08-20T23:31:09.229Z,75.10
2018-08-20T23:34:07.200Z,74.51
2018-08-20T23:37:05.320Z,75.36
2018-08-20T23:40:03.042Z,75.43
2018-08-20T23:43:00.758Z,73.90
2018-08-20T23:45:58.606Z,74.23
2018-08-20T23:48:56.529Z,76.52
2018-08-20T23:51:54.476Z,75.60
2018-08-20T23:54:52.186Z,75.47
2018-08-20T23:57:49.323Z,76.05
